Time;durP1;ratioP1;P1;durP2;ratioP2;P2;SDS_P1;SDS_P2;PMS_P1;PMS_P2;Temp;Humidity;BMP_temperature;BMP_pressure;BME280_temperature;BME280_humidity;BME280_pressure;Samples;Min_cycle;Max_cycle;Signal;HPM_P1;HPM_P2
2023/07/18 00:01:27;;;;;;;4.40;4.03;;;22.90;99.90;;;;;;5042859;28;20197;-52
2023/07/18 00:03:54;;;;;;;4.17;3.77;;;22.90;99.90;;;;;;5042448;28;20288;-52
2023/07/18 00:06:24;;;;;;;3.53;3.37;;;22.80;99.90;;;;;;5045161;28;20247;-52
2023/07/18 00:08:52;;;;;;;4.30;4.00;;;22.80;99.90;;;;;;5046233;28;20221;-52
2023/07/18 00:11:20;;;;;;;3.47;3.27;;;22.70;99.90;;;;;;5049775;28;20252;-52
2023/07/18 00:13:47;;;;;;;3.37;2.87;;;22.70;99.90;;;;;;5041801;28;20194;-52
2023/07/18 00:16:13;;;;;;;5.70;5.30;;;22.60;99.90;;;;;;5045099;28;20268;-51
2023/07/18 00:18:40;;;;;;;4.50;4.23;;;22.60;99.90;;;;;;5043003;28;20772;-52
2023/07/18 00:21:08;;;;;;;4.13;3.57;;;22.50;99.90;;;;;;5044691;28;20260;-52
2023/07/18 00:23:35;;;;;;;4.13;3.83;;;22.50;99.90;;;;;;5047259;28;20204;-52
2023/07/18 00:26:03;;;;;;;4.10;3.23;;;22.50;99.90;;;;;;5040126;28;20195;-51
2023/07/18 00:28:30;;;;;;;4.03;3.77;;;22.50;99.90;;;;;;5033384;28;20591;-52
2023/07/18 00:30:57;;;;;;;3.60;3.40;;;22.40;99.90;;;;;;5040052;28;20280;-52
2023/07/18 00:33:25;;;;;;;4.07;3.83;;;22.30;99.90;;;;;;5048222;28;20550;-52
2023/07/18 00:35:52;;;;;;;4.30;3.90;;;22.20;99.90;;;;;;5048681;28;20659;-52
2023/07/18 00:38:20;;;;;;;5.87;3.63;;;22.10;99.90;;;;;;5040502;28;20857;-51
2023/07/18 00:40:48;;;;;;;5.07;4.77;;;22.10;99.90;;;;;;5038877;28;20202;-52
2023/07/18 00:43:17;;;;;;;3.60;3.40;;;22.00;99.90;;;;;;5037089;28;20838;-52
2023/07/18 00:45:48;;;;;;;3.90;3.70;;;21.90;99.90;;;;;;5040056;28;20628;-52
2023/07/18 00:48:15;;;;;;;4.50;4.10;;;21.80;99.90;;;;;;5047822;28;20665;-52
2023/07/18 00:50:42;;;;;;;5.70;2.70;;;21.80;99.90;;;;;;5043837;28;20202;-52
2023/07/18 00:53:10;;;;;;;4.43;3.57;;;21.70;99.90;;;;;;5043516;28;20194;-52
2023/07/18 00:55:38;;;;;;;5.27;4.00;;;21.70;99.90;;;;;;5045623;28;20264;-52
2023/07/18 00:58:05;;;;;;;3.50;3.20;;;21.60;99.90;;;;;;5037306;28;20218;-51
2023/07/18 01:00:33;;;;;;;4.13;3.93;;;21.60;99.90;;;;;;5036634;28;20260;-51
2023/07/18 01:03:00;;;;;;;4.30;3.80;;;21.50;99.90;;;;;;5047258;28;20198;-51
2023/07/18 01:05:28;;;;;;;4.17;3.97;;;21.50;99.90;;;;;;5047456;28;20287;-51
2023/07/18 01:07:54;;;;;;;3.77;3.53;;;21.40;99.90;;;;;;5040204;28;20198;-52
2023/07/18 01:10:24;;;;;;;3.60;3.40;;;21.30;99.90;;;;;;5045618;28;20229;-52
2023/07/18 01:12:52;;;;;;;4.20;3.90;;;21.30;99.90;;;;;;5049433;28;20257;-51
2023/07/18 01:15:19;;;;;;;3.13;3.03;;;21.20;99.90;;;;;;5039372;28;20289;-51
2023/07/18 01:17:48;;;;;;;3.80;3.57;;;21.20;99.90;;;;;;5047476;28;20299;-51
2023/07/18 01:20:18;;;;;;;5.00;3.23;;;21.20;99.90;;;;;;5041999;28;20291;-51
2023/07/18 01:22:49;;;;;;;3.97;3.63;;;21.20;99.90;;;;;;5034895;28;20298;-52
2023/07/18 01:25:17;;;;;;;3.20;3.00;;;21.10;99.90;;;;;;5053388;28;20201;-51
2023/07/18 01:27:44;;;;;;;3.97;3.63;;;21.10;99.90;;;;;;5054886;28;20554;-51
2023/07/18 01:30:12;;;;;;;3.93;3.73;;;21.20;99.90;;;;;;5044494;28;20201;-51
2023/07/18 01:32:39;;;;;;;4.40;3.93;;;21.10;99.90;;;;;;5052779;28;20248;-51
2023/07/18 01:35:09;;;;;;;3.47;3.30;;;21.10;99.90;;;;;;5045257;28;20634;-51
2023/07/18 01:37:37;;;;;;;3.07;2.83;;;21.10;99.90;;;;;;5038907;28;20218;-51
2023/07/18 01:40:12;;;;;;;4.10;3.63;;;21.10;99.90;;;;;;5044240;28;20218;-52
2023/07/18 01:42:39;;;;;;;3.50;3.30;;;21.10;99.90;;;;;;5041895;28;20266;-51
2023/07/18 01:45:07;;;;;;;5.00;4.13;;;21.00;99.90;;;;;;5050439;28;20570;-51
2023/07/18 01:47:34;;;;;;;3.40;3.20;;;21.00;99.90;;;;;;5038666;28;20628;-52
2023/07/18 01:50:03;;;;;;;5.10;4.20;;;21.00;99.90;;;;;;5043503;28;20711;-51
2023/07/18 01:52:30;;;;;;;3.93;3.63;;;21.00;99.90;;;;;;5033855;28;20294;-50
2023/07/18 01:54:58;;;;;;;3.87;3.63;;;21.00;99.90;;;;;;5046914;28;20210;-50
2023/07/18 01:57:30;;;;;;;3.73;3.40;;;20.90;99.90;;;;;;5041479;28;20240;-51
2023/07/18 01:59:58;;;;;;;3.47;3.37;;;20.90;99.90;;;;;;5040204;28;20231;-51
2023/07/18 02:02:25;;;;;;;3.87;3.50;;;20.90;99.90;;;;;;5041447;28;20341;-51
2023/07/18 02:04:52;;;;;;;3.47;3.20;;;20.80;99.90;;;;;;5049546;28;20198;-51
2023/07/18 02:07:19;;;;;;;4.47;4.17;;;20.80;99.90;;;;;;5044650;28;20194;-50
2023/07/18 02:09:46;;;;;;;4.00;3.47;;;20.80;99.90;;;;;;5048641;28;20343;-52
2023/07/18 02:12:14;;;;;;;4.27;3.97;;;20.70;99.90;;;;;;5042174;28;20355;-51
2023/07/18 02:14:43;;;;;;;4.43;3.80;;;20.70;99.90;;;;;;5040957;28;20221;-52
2023/07/18 02:17:10;;;;;;;4.77;4.30;;;20.70;99.90;;;;;;5048788;28;20639;-51
2023/07/18 02:19:36;;;;;;;5.87;5.47;;;20.70;99.90;;;;;;5052321;28;20681;-51
2023/07/18 02:22:04;;;;;;;3.93;3.63;;;20.60;99.90;;;;;;5040387;28;20198;-51
2023/07/18 02:24:32;;;;;;;3.67;3.37;;;20.60;99.90;;;;;;5040551;28;20229;-51
2023/07/18 02:26:59;;;;;;;4.33;3.93;;;20.60;99.90;;;;;;5036996;28;20206;-51
2023/07/18 02:29:26;;;;;;;3.90;3.67;;;20.60;99.90;;;;;;5048344;28;20271;-51
2023/07/18 02:31:54;;;;;;;4.00;3.70;;;20.60;99.90;;;;;;5049175;28;20202;-51
2023/07/18 02:34:22;;;;;;;5.20;4.20;;;20.60;99.90;;;;;;5041990;28;20630;-51
2023/07/18 02:36:49;;;;;;;7.80;4.17;;;20.60;99.90;;;;;;5050927;28;20229;-50
2023/07/18 02:39:16;;;;;;;4.33;3.93;;;20.60;99.90;;;;;;5037871;28;20271;-51
2023/07/18 02:41:42;;;;;;;3.63;3.33;;;20.50;99.90;;;;;;5038366;28;20722;-51
2023/07/18 02:44:10;;;;;;;3.97;3.67;;;20.50;99.90;;;;;;5043312;28;20202;-51
2023/07/18 02:46:37;;;;;;;3.80;3.50;;;20.50;99.90;;;;;;5050568;28;20216;-51
2023/07/18 02:49:06;;;;;;;4.17;3.97;;;20.50;99.90;;;;;;5033549;28;20301;-51
2023/07/18 02:51:33;;;;;;;3.80;3.50;;;20.50;99.90;;;;;;5041850;28;20656;-51
2023/07/18 02:54:00;;;;;;;4.43;4.13;;;20.50;99.90;;;;;;5047691;28;20841;-51
2023/07/18 02:56:27;;;;;;;4.03;3.73;;;20.50;99.90;;;;;;5045572;28;20205;-51
2023/07/18 02:58:53;;;;;;;4.23;4.03;;;20.50;99.90;;;;;;5051456;28;20214;-51
2023/07/18 03:01:20;;;;;;;4.17;3.73;;;20.40;99.90;;;;;;5047945;28;20248;-51
2023/07/18 03:03:47;;;;;;;4.30;4.03;;;20.40;99.90;;;;;;5041827;28;20194;-51
2023/07/18 03:06:16;;;;;;;3.80;3.50;;;20.40;99.90;;;;;;5039887;28;20253;-52
2023/07/18 03:08:43;;;;;;;4.13;3.80;;;20.40;99.90;;;;;;5040748;28;20218;-51
2023/07/18 03:11:10;;;;;;;4.23;3.97;;;20.30;99.90;;;;;;5040940;28;20281;-51
2023/07/18 03:13:37;;;;;;;4.77;4.37;;;20.30;99.90;;;;;;5036792;28;20252;-51
2023/07/18 03:16:07;;;;;;;4.10;3.67;;;20.30;99.90;;;;;;5035607;28;20729;-51
2023/07/18 03:18:33;;;;;;;5.10;4.63;;;20.30;99.90;;;;;;5041954;28;20273;-50
2023/07/18 03:21:00;;;;;;;4.23;3.97;;;20.30;99.90;;;;;;5050672;28;20261;-51
2023/07/18 03:23:29;;;;;;;4.50;3.83;;;20.30;99.90;;;;;;5052579;28;20255;-50
2023/07/18 03:25:56;;;;;;;4.70;4.33;;;20.30;99.90;;;;;;5047142;28;20610;-51
2023/07/18 03:28:23;;;;;;;4.50;4.20;;;20.30;99.90;;;;;;5038836;28;20217;-51
2023/07/18 03:30:50;;;;;;;5.17;4.87;;;20.30;99.90;;;;;;5034820;28;20567;-51
2023/07/18 03:33:17;;;;;;;5.20;4.27;;;20.30;99.90;;;;;;5032308;28;20210;-51
2023/07/18 03:35:44;;;;;;;4.87;4.47;;;20.20;99.90;;;;;;5042766;28;20260;-50
2023/07/18 03:38:11;;;;;;;4.73;4.13;;;20.20;99.90;;;;;;5050908;28;20617;-51
2023/07/18 03:40:39;;;;;;;4.40;4.10;;;20.20;99.90;;;;;;5044497;28;20198;-51
2023/07/18 03:43:06;;;;;;;5.57;5.07;;;20.10;99.90;;;;;;5042614;28;20733;-51
2023/07/18 03:45:33;;;;;;;16.20;4.60;;;20.10;99.90;;;;;;5049294;28;20232;-52
2023/07/18 03:48:00;;;;;;;4.57;4.23;;;20.20;99.90;;;;;;5049329;28;20291;-51
2023/07/18 03:50:27;;;;;;;5.07;4.63;;;20.20;99.90;;;;;;5040971;28;20206;-51
2023/07/18 03:52:54;;;;;;;4.10;3.80;;;20.10;99.90;;;;;;5041286;28;20693;-51
2023/07/18 03:55:21;;;;;;;4.97;4.63;;;20.00;99.90;;;;;;5044854;28;20253;-51
2023/07/18 03:57:50;;;;;;;4.23;3.93;;;20.00;99.90;;;;;;5047469;28;20256;-51
2023/07/18 04:00:18;;;;;;;4.40;4.00;;;20.00;99.90;;;;;;5041130;28;20374;-52
2023/07/18 04:02:47;;;;;;;3.97;3.73;;;19.90;99.90;;;;;;5042770;28;20198;-52
2023/07/18 04:05:15;;;;;;;4.67;4.27;;;19.90;99.90;;;;;;5041824;28;20206;-51
2023/07/18 04:07:43;;;;;;;5.50;5.20;;;19.90;99.90;;;;;;5042269;28;20200;-51
2023/07/18 04:10:11;;;;;;;4.80;4.40;;;20.00;99.90;;;;;;5043644;28;20668;-51
2023/07/18 04:12:41;;;;;;;4.47;4.07;;;20.00;99.90;;;;;;5043156;28;20697;-51
2023/07/18 04:15:11;;;;;;;5.40;5.00;;;20.00;99.90;;;;;;5042432;28;20206;-51
2023/07/18 04:17:38;;;;;;;5.17;4.57;;;20.10;99.90;;;;;;5043723;28;20310;-51
2023/07/18 04:20:07;;;;;;;5.10;4.53;;;20.10;99.90;;;;;;5042322;28;20236;-51
2023/07/18 04:22:33;;;;;;;5.33;4.50;;;20.10;99.90;;;;;;5043444;28;20194;-51
2023/07/18 04:25:00;;;;;;;4.47;4.07;;;20.10;99.90;;;;;;5043194;28;20201;-51
2023/07/18 04:27:27;;;;;;;6.70;5.33;;;20.10;99.90;;;;;;5040964;28;20625;-50
2023/07/18 04:29:56;;;;;;;6.10;5.53;;;20.10;99.90;;;;;;5041730;28;20304;-51
2023/07/18 04:32:24;;;;;;;5.03;4.67;;;20.10;99.90;;;;;;5043199;28;20193;-52
2023/07/18 04:34:51;;;;;;;5.50;5.00;;;20.10;99.90;;;;;;5042046;28;20194;-51
2023/07/18 04:37:18;;;;;;;5.43;5.03;;;20.20;99.90;;;;;;5043345;28;20229;-51
2023/07/18 04:39:45;;;;;;;4.93;4.53;;;20.20;99.90;;;;;;5043353;28;20308;-51
2023/07/18 04:42:12;;;;;;;5.97;5.17;;;20.30;99.90;;;;;;5042184;28;20684;-51
2023/07/18 04:44:39;;;;;;;4.63;4.43;;;20.40;99.90;;;;;;5041351;28;20245;-51
2023/07/18 04:47:08;;;;;;;4.63;4.00;;;20.40;99.90;;;;;;5041045;28;20222;-51
2023/07/18 04:49:36;;;;;;;6.73;5.00;;;20.50;99.90;;;;;;5041918;28;20319;-50
2023/07/18 04:52:04;;;;;;;7.67;5.37;;;20.60;99.90;;;;;;5041641;28;20284;-51
2023/07/18 04:54:31;;;;;;;4.87;4.47;;;20.70;99.90;;;;;;5042567;28;20205;-51
2023/07/18 04:56:58;;;;;;;5.63;5.13;;;20.70;99.90;;;;;;5043413;28;20202;-51
2023/07/18 04:59:25;;;;;;;5.47;5.17;;;20.90;99.90;;;;;;5043174;28;20761;-50
2023/07/18 05:01:54;;;;;;;5.90;4.60;;;20.90;99.90;;;;;;5046368;28;20194;-51
2023/07/18 05:04:20;;;;;;;4.57;4.27;;;21.20;99.90;;;;;;5044547;28;20200;-51
2023/07/18 05:06:49;;;;;;;5.23;4.50;;;21.40;99.90;;;;;;5049383;28;20244;-51
2023/07/18 05:09:17;;;;;;;5.77;4.67;;;21.60;99.90;;;;;;5039222;28;20213;-51
2023/07/18 05:11:45;;;;;;;7.70;5.07;;;21.80;99.90;;;;;;5044862;28;21627;-51
2023/07/18 05:14:12;;;;;;;4.33;3.90;;;21.90;99.90;;;;;;5043472;28;20206;-51
2023/07/18 05:16:39;;;;;;;4.60;4.30;;;22.30;99.90;;;;;;5047330;28;20243;-50
2023/07/18 05:19:06;;;;;;;7.73;4.93;;;22.50;99.90;;;;;;5045079;28;20290;-51
2023/07/18 05:21:33;;;;;;;5.43;4.93;;;22.70;99.90;;;;;;5050938;28;20276;-51
2023/07/18 05:24:01;;;;;;;5.33;4.07;;;22.80;99.90;;;;;;5042496;28;20621;-50
2023/07/18 05:26:28;;;;;;;5.67;4.80;;;22.80;99.90;;;;;;5041263;28;20202;-50
2023/07/18 05:28:55;;;;;;;4.23;3.80;;;22.70;99.90;;;;;;5076669;22;20355;-54
2023/07/18 05:31:22;;;;;;;4.70;4.17;;;22.70;99.90;;;;;;5067452;28;20271;-53
2023/07/18 05:33:49;;;;;;;4.97;4.50;;;23.00;99.90;;;;;;5063109;28;20213;-54
2023/07/18 05:36:17;;;;;;;4.43;4.10;;;23.70;99.90;;;;;;5067094;28;20273;-54
2023/07/18 05:38:45;;;;;;;5.73;4.50;;;24.50;99.90;;;;;;5051007;28;20233;-54
2023/07/18 05:41:13;;;;;;;5.23;4.57;;;24.50;99.90;;;;;;5038503;28;20572;-54
2023/07/18 05:43:40;;;;;;;4.37;4.07;;;24.70;99.90;;;;;;5041369;28;20384;-54
2023/07/18 05:46:07;;;;;;;4.83;4.40;;;24.60;99.90;;;;;;5048194;28;20614;-54
2023/07/18 05:48:34;;;;;;;6.47;4.67;;;24.50;99.90;;;;;;5052785;28;20256;-53
2023/07/18 05:51:01;;;;;;;4.97;4.40;;;24.10;99.90;;;;;;5046127;28;20259;-54
2023/07/18 05:53:28;;;;;;;5.07;4.00;;;23.80;99.90;;;;;;5047530;28;20685;-54
2023/07/18 05:55:55;;;;;;;4.23;4.03;;;23.40;99.90;;;;;;5041972;28;20294;-54
2023/07/18 05:58:23;;;;;;;7.50;4.97;;;23.20;99.90;;;;;;5041803;28;20215;-53
2023/07/18 06:00:50;;;;;;;6.13;4.50;;;23.20;99.90;;;;;;5038450;28;20234;-54
2023/07/18 06:03:17;;;;;;;9.07;4.33;;;23.10;99.90;;;;;;5047642;28;20306;-54
2023/07/18 06:05:44;;;;;;;4.57;4.10;;;23.10;99.90;;;;;;5043908;28;20268;-53
2023/07/18 06:08:12;;;;;;;4.73;4.43;;;23.10;99.90;;;;;;5046275;28;20218;-54
2023/07/18 06:10:39;;;;;;;5.27;4.37;;;23.10;99.90;;;;;;5042801;28;20194;-54
2023/07/18 06:13:07;;;;;;;4.17;3.87;;;23.30;99.90;;;;;;5050697;28;20206;-54
2023/07/18 06:15:36;;;;;;;6.00;5.37;;;23.60;99.90;;;;;;5047306;28;20591;-54
2023/07/18 06:18:04;;;;;;;5.60;3.93;;;24.10;99.90;;;;;;5037683;28;20237;-53
2023/07/18 06:20:32;;;;;;;4.10;3.80;;;24.40;99.90;;;;;;5048016;28;20339;-54
2023/07/18 06:22:59;;;;;;;4.97;3.80;;;25.10;99.90;;;;;;5046585;28;20652;-54
2023/07/18 06:25:26;;;;;;;6.20;4.90;;;26.00;99.90;;;;;;5046968;28;20535;-54
2023/07/18 06:27:53;;;;;;;5.03;4.70;;;26.70;99.90;;;;;;5048418;28;20229;-54
2023/07/18 06:30:20;;;;;;;5.87;4.20;;;27.50;99.90;;;;;;5051941;28;20264;-54
2023/07/18 06:32:49;;;;;;;4.27;3.93;;;27.40;99.90;;;;;;5049329;28;20194;-54
2023/07/18 06:35:16;;;;;;;4.25;4.00;;;28.30;99.90;;;;;;5046757;28;20244;-55
2023/07/18 06:37:43;;;;;;;5.93;4.85;;;27.70;99.90;;;;;;5051469;28;20222;-54
2023/07/18 06:40:12;;;;;;;4.90;4.47;;;27.70;99.90;;;;;;5051899;28;20202;-55
2023/07/18 06:42:40;;;;;;;5.05;4.55;;;27.50;99.90;;;;;;5050299;28;20656;-54
2023/07/18 06:45:08;;;;;;;5.05;4.65;;;27.90;99.90;;;;;;5049884;28;20198;-54
2023/07/18 06:47:35;;;;;;;4.85;4.03;;;27.50;99.90;;;;;;5042546;28;20222;-54
2023/07/18 06:50:04;;;;;;;4.35;3.95;;;27.20;99.90;;;;;;5042142;28;20197;-54
2023/07/18 06:52:31;;;;;;;6.03;4.78;;;26.80;99.90;;;;;;5048402;28;20263;-54
2023/07/18 06:54:58;;;;;;;5.10;4.03;;;26.70;99.90;;;;;;5045994;28;20612;-54
2023/07/18 06:57:25;;;;;;;6.95;4.70;;;26.60;99.90;;;;;;5042414;28;20260;-54
2023/07/18 06:59:52;;;;;;;3.75;3.53;;;26.40;99.90;;;;;;5034487;28;20214;-54
2023/07/18 07:02:19;;;;;;;5.03;4.63;;;26.80;99.90;;;;;;5051327;28;20664;-54
2023/07/18 07:04:46;;;;;;;4.53;4.22;;;26.90;99.90;;;;;;5051548;28;20650;-54
2023/07/18 07:07:14;;;;;;;4.65;4.20;;;27.50;99.90;;;;;;5051558;28;20255;-54
2023/07/18 07:09:41;;;;;;;5.20;4.82;;;28.30;99.90;;;;;;5051084;28;20205;-54
2023/07/18 07:12:09;;;;;;;4.38;4.13;;;29.50;99.90;;;;;;5049300;28;20198;-55
2023/07/18 07:14:36;;;;;;;4.85;4.13;;;30.30;99.90;;;;;;5040466;28;20198;-54
2023/07/18 07:17:03;;;;;;;5.80;5.25;;;31.30;99.90;;;;;;5050621;28;20255;-55
2023/07/18 07:19:30;;;;;;;6.35;5.78;;;31.50;99.90;;;;;;5051136;28;20308;-55
2023/07/18 07:21:57;;;;;;;5.72;5.18;;;31.60;99.90;;;;;;5050688;28;20524;-55
2023/07/18 07:24:26;;;;;;;4.90;4.43;;;32.00;99.90;;;;;;5033607;28;20202;-55
2023/07/18 07:26:53;;;;;;;4.95;4.45;;;31.90;99.90;;;;;;5043830;28;20209;-55
2023/07/18 07:29:20;;;;;;;5.93;4.95;;;32.30;99.90;;;;;;5044361;28;20222;-55
2023/07/18 07:31:46;;;;;;;5.82;5.50;;;32.20;99.90;;;;;;5038656;28;20195;-54
2023/07/18 07:34:13;;;;;;;4.95;4.68;;;31.30;99.90;;;;;;5041085;28;20205;-54
2023/07/18 07:36:40;;;;;;;6.03;5.63;;;31.70;99.90;;;;;;5041837;28;20727;-54
2023/07/18 07:39:07;;;;;;;5.53;5.00;;;31.80;99.90;;;;;;5042615;28;20225;-55
2023/07/18 07:41:36;;;;;;;6.00;4.93;;;32.40;99.90;;;;;;5039758;28;20204;-54
2023/07/18 07:44:03;;;;;;;5.90;5.43;;;32.70;99.90;;;;;;5038196;28;20260;-55
2023/07/18 07:46:32;;;;;;;9.25;5.30;;;33.50;99.90;;;;;;5044117;28;20212;-55
2023/07/18 07:48:59;;;;;;;5.43;4.95;;;33.90;99.90;;;;;;5047600;28;20267;-55
2023/07/18 07:51:26;;;;;;;5.43;5.03;;;33.70;99.70;;;;;;5046250;28;20514;-55
2023/07/18 07:53:54;;;;;;;6.50;5.90;;;33.90;98.40;;;;;;5042124;28;20193;-76
2023/07/18 07:56:21;;;;;;;5.78;5.22;;;34.00;98.30;;;;;;5050182;28;20621;-76
2023/07/18 07:58:50;;;;;;;5.78;5.13;;;34.10;99.90;;;;;;5050700;28;20244;-74
2023/07/18 08:01:16;;;;;;;4.80;4.30;;;34.30;98.60;;;;;;5044475;28;20198;-78
2023/07/18 08:03:43;;;;;;;5.07;4.78;;;34.20;99.90;;;;;;5050323;28;20240;-71
2023/07/18 08:06:10;;;;;;;6.63;5.05;;;33.20;99.20;;;;;;5044821;28;20406;-70
2023/07/18 08:08:37;;;;;;;5.80;5.30;;;33.70;99.00;;;;;;5038566;28;20253;-68
2023/07/18 08:11:05;;;;;;;5.28;4.88;;;33.80;99.90;;;;;;5036572;28;20261;-55
2023/07/18 08:13:31;;;;;;;8.18;5.65;;;34.00;99.20;;;;;;5035718;28;20205;-64
2023/07/18 08:16:00;;;;;;;5.82;5.32;;;34.10;97.90;;;;;;5041421;28;20197;-63
2023/07/18 08:18:27;;;;;;;6.22;5.78;;;34.50;97.10;;;;;;5038632;28;20684;-65
2023/07/18 08:20:54;;;;;;;5.80;5.18;;;34.90;96.80;;;;;;5040363;28;20198;-65
2023/07/18 08:23:21;;;;;;;6.65;6.00;;;35.10;95.80;;;;;;5049801;28;20228;-66
2023/07/18 08:25:48;;;;;;;7.47;5.25;;;35.10;95.60;;;;;;5038176;28;20252;-64
2023/07/18 08:28:15;;;;;;;6.78;5.32;;;35.00;98.30;;;;;;5038104;28;20299;-67
2023/07/18 08:30:42;;;;;;;5.40;4.90;;;34.90;97.00;;;;;;5030130;28;20233;-62
2023/07/18 08:33:10;;;;;;;7.38;6.75;;;34.60;96.70;;;;;;5031395;28;20260;-61
2023/07/18 08:35:38;;;;;;;6.85;6.35;;;34.30;97.10;;;;;;5040647;28;20194;-59
2023/07/18 08:38:06;;;;;;;6.40;5.90;;;34.20;98.90;;;;;;5038208;28;20722;-60
2023/07/18 08:40:33;;;;;;;5.57;5.18;;;34.50;98.20;;;;;;5038454;28;20217;-59
2023/07/18 08:43:00;;;;;;;5.60;5.13;;;34.30;99.10;;;;;;5037682;28;20293;-59
2023/07/18 08:45:30;;;;;;;6.40;6.00;;;34.50;97.90;;;;;;5042195;28;20661;-62
2023/07/18 08:47:57;;;;;;;6.22;5.72;;;34.70;98.20;;;;;;5030230;28;20296;-61
2023/07/18 08:50:26;;;;;;;7.13;6.45;;;34.30;97.40;;;;;;5042309;28;20213;-61
2023/07/18 08:52:53;;;;;;;5.93;5.53;;;34.10;96.80;;;;;;5038942;28;20202;-60
2023/07/18 08:55:21;;;;;;;6.15;5.78;;;34.00;97.70;;;;;;5037831;28;20709;-63
2023/07/18 08:57:50;;;;;;;6.22;5.60;;;34.00;99.10;;;;;;5029329;28;20222;-63
2023/07/18 09:00:20;;;;;;;7.68;7.07;;;34.30;98.50;;;;;;5032137;28;20596;-62
2023/07/18 09:02:49;;;;;;;6.78;5.93;;;34.40;99.10;;;;;;5040955;28;20203;-62
2023/07/18 09:05:32;;;;;;;6.43;5.80;;;33.90;98.90;;;;;;5049348;28;20240;-64
2023/07/18 09:08:00;;;;;;;6.43;5.82;;;33.70;99.90;;;;;;5049295;28;20221;-62
2023/07/18 09:10:28;;;;;;;7.43;6.80;;;34.10;99.90;;;;;;5048138;28;20284;-63
2023/07/18 09:12:55;;;;;;;5.55;5.25;;;34.20;99.10;;;;;;5037924;28;20561;-64
2023/07/18 09:15:22;;;;;;;6.30;5.70;;;33.90;98.90;;;;;;5037519;28;20253;-64
2023/07/18 09:17:54;;;;;;;8.52;6.18;;;34.10;99.20;;;;;;5029437;28;20219;-62
2023/07/18 09:20:21;;;;;;;6.88;6.10;;;34.70;98.60;;;;;;5029679;28;20210;-62
2023/07/18 09:22:50;;;;;;;6.40;5.95;;;34.30;99.50;;;;;;5046076;28;20700;-62
2023/07/18 09:25:17;;;;;;;5.90;5.30;;;33.90;99.90;;;;;;5048409;28;20198;-69
2023/07/18 09:27:45;;;;;;;7.43;6.45;;;33.90;99.90;;;;;;5048081;28;20654;-63
2023/07/18 09:30:12;;;;;;;7.32;6.72;;;34.10;99.30;;;;;;5037198;28;20201;-62
2023/07/18 09:32:42;;;;;;;6.97;6.38;;;34.00;99.30;;;;;;5029415;28;20210;-63
2023/07/18 09:35:11;;;;;;;8.85;6.40;;;33.90;99.60;;;;;;5029694;28;20206;-63
2023/07/18 09:37:47;;;;;;;9.13;5.72;;;33.10;99.90;;;;;;5036109;28;20305;-63
2023/07/18 09:40:18;;;;;;;6.93;6.50;;;32.60;99.90;;;;;;5037232;28;20221;-62
2023/07/18 09:42:46;;;;;;;7.20;6.60;;;32.10;99.90;;;;;;5037627;28;20249;-64
2023/07/18 09:45:13;;;;;;;5.97;5.45;;;31.50;99.90;;;;;;5033407;28;20347;-66
2023/07/18 09:47:44;;;;;;;12.77;6.43;;;31.50;99.90;;;;;;5036293;28;20226;-67
2023/07/18 09:50:13;;;;;;;7.10;6.20;;;31.30;99.90;;;;;;5033289;28;20197;-67
2023/07/18 09:52:49;;;;;;;8.07;6.38;;;31.80;99.90;;;;;;5048601;28;20280;-65
2023/07/18 09:55:24;;;;;;;7.07;6.47;;;31.90;99.90;;;;;;5043571;28;20682;-67
2023/07/18 09:57:55;;;;;;;6.60;5.97;;;32.60;99.90;;;;;;5042343;28;20222;-66
2023/07/18 10:00:24;;;;;;;10.30;7.55;;;32.80;99.90;;;;;;5052625;28;20233;-65
2023/07/18 10:02:52;;;;;;;7.43;6.72;;;32.90;99.90;;;;;;5052769;28;20202;-64
2023/07/18 10:05:20;;;;;;;7.90;6.95;;;33.10;99.90;;;;;;5032908;28;20202;-62
2023/07/18 10:07:48;;;;;;;8.10;7.30;;;32.80;99.90;;;;;;5033231;28;20708;-63
2023/07/18 10:10:15;;;;;;;8.90;7.32;;;32.20;99.90;;;;;;5044334;28;20193;-63
2023/07/18 10:13:01;;;;;;;7.18;6.65;;;31.40;99.90;;;;;;5036147;28;20199;-63
2023/07/18 10:15:28;;;;;;;7.82;6.97;;;30.40;99.90;;;;;;5036656;28;20210;-62
2023/07/18 10:17:55;;;;;;;6.65;6.03;;;29.90;99.90;;;;;;5050469;28;20532;-64
2023/07/18 10:20:24;;;;;;;11.55;7.65;;;29.50;99.90;;;;;;5047094;28;20207;-68
2023/07/18 10:22:57;;;;;;;7.18;6.32;;;30.00;99.90;;;;;;5037686;28;20202;-66
2023/07/18 10:25:26;;;;;;;7.28;6.68;;;30.10;99.90;;;;;;5040206;28;20198;-62
2023/07/18 10:27:53;;;;;;;7.25;6.25;;;31.00;99.90;;;;;;5032085;28;20876;-63
2023/07/18 10:30:22;;;;;;;10.02;6.93;;;31.50;99.90;;;;;;5041561;28;20253;-64
2023/07/18 10:32:53;;;;;;;8.80;7.90;;;31.80;99.90;;;;;;5040257;28;20548;-64
2023/07/18 10:35:21;;;;;;;11.02;8.05;;;31.60;99.90;;;;;;5049289;28;20206;-62
2023/07/18 10:37:53;;;;;;;14.77;6.88;;;30.90;99.90;;;;;;5052331;28;20737;-54
2023/07/18 10:40:39;;;;;;;10.10;7.20;;;30.80;99.90;;;;;;5052202;28;20644;-55
2023/07/18 10:43:07;;;;;;;10.85;7.13;;;30.50;99.90;;;;;;5041856;28;20213;-55
2023/07/18 10:45:38;;;;;;;8.07;7.50;;;30.10;99.90;;;;;;5036591;28;20198;-55
2023/07/18 10:48:13;;;;;;;8.48;7.63;;;29.40;99.90;;;;;;5032303;28;20223;-55
2023/07/18 10:50:40;;;;;;;7.72;7.15;;;29.40;99.90;;;;;;5035198;28;20270;-59
2023/07/18 10:53:11;;;;;;;9.52;7.25;;;28.80;99.90;;;;;;5041865;28;20194;-62
2023/07/18 10:55:39;;;;;;;8.60;7.30;;;28.20;99.90;;;;;;5035956;28;20206;-54
2023/07/18 10:58:11;;;;;;;7.53;6.82;;;28.00;99.90;;;;;;5031751;28;20244;-64
2023/07/18 11:00:40;;;;;;;7.70;7.00;;;28.20;99.90;;;;;;5032121;28;20261;-64
2023/07/18 11:03:08;;;;;;;8.20;7.40;;;28.20;99.90;;;;;;5031249;28;20224;-63
2023/07/18 11:05:35;;;;;;;7.57;6.88;;;28.20;99.90;;;;;;5031642;28;20214;-62
2023/07/18 11:08:03;;;;;;;6.63;6.18;;;28.40;99.90;;;;;;5042086;28;20230;-62
2023/07/18 11:10:34;;;;;;;7.68;6.95;;;28.50;99.90;;;;;;5033542;28;20198;-73
2023/07/18 11:13:01;;;;;;;7.57;7.03;;;28.70;99.90;;;;;;5038186;28;20642;-55
2023/07/18 11:15:29;;;;;;;7.72;7.05;;;28.90;99.90;;;;;;5039544;28;20196;-55
2023/07/18 11:17:57;;;;;;;9.05;7.47;;;29.20;99.90;;;;;;5031362;28;20248;-62
2023/07/18 11:20:25;;;;;;;7.45;6.80;;;29.70;99.90;;;;;;5033592;28;20232;-62
2023/07/18 11:22:53;;;;;;;7.25;6.55;;;29.90;99.90;;;;;;5041242;28;20190;-61
2023/07/18 11:25:20;;;;;;;7.72;6.95;;;29.90;99.90;;;;;;5039414;28;20220;-60
2023/07/18 11:27:50;;;;;;;7.75;7.00;;;29.70;99.90;;;;;;5050404;28;20225;-61
2023/07/18 11:30:22;;;;;;;6.10;5.80;;;29.70;99.90;;;;;;5047526;28;20280;-53
2023/07/18 11:32:49;;;;;;;7.47;6.85;;;29.80;99.90;;;;;;5045333;28;20206;-53
2023/07/18 11:35:21;;;;;;;7.55;6.85;;;29.90;99.90;;;;;;5032490;28;20248;-53
2023/07/18 11:37:52;;;;;;;6.65;6.05;;;29.60;99.90;;;;;;5036853;28;20273;-53
2023/07/18 11:40:20;;;;;;;8.00;7.30;;;29.10;99.90;;;;;;5035453;28;20268;-53
2023/07/18 11:42:49;;;;;;;7.80;7.18;;;28.70;99.90;;;;;;5042198;28;20209;-52
2023/07/18 11:45:17;;;;;;;7.18;6.25;;;27.90;99.90;;;;;;5042286;28;20205;-52
2023/07/18 11:47:47;;;;;;;14.90;7.85;;;27.20;99.90;;;;;;5041284;28;20287;-52
2023/07/18 11:50:15;;;;;;;10.48;7.65;;;26.80;99.90;;;;;;5041752;28;20624;-52
2023/07/18 11:52:49;;;;;;;8.37;6.70;;;26.40;99.90;;;;;;5033750;28;20261;-52
2023/07/18 11:55:17;;;;;;;11.10;7.37;;;25.80;99.90;;;;;;5030543;28;20214;-53
2023/07/18 11:57:44;;;;;;;8.03;6.97;;;25.20;99.90;;;;;;5030774;28;20246;-52
2023/07/18 12:00:13;;;;;;;10.33;7.03;;;24.80;99.90;;;;;;5045590;28;20229;-52
2023/07/18 12:02:44;;;;;;;10.30;6.40;;;24.50;99.90;;;;;;5041087;28;20202;-52
2023/07/18 12:05:13;;;;;;;7.87;6.97;;;24.30;99.90;;;;;;5042757;28;20201;-52
2023/07/18 12:07:44;;;;;;;9.80;6.47;;;24.20;99.90;;;;;;5050286;28;20719;-53
2023/07/18 12:10:14;;;;;;;6.87;6.37;;;24.30;99.90;;;;;;5049365;28;20241;-53
2023/07/18 12:12:41;;;;;;;6.97;6.27;;;24.30;99.90;;;;;;5093054;22;20252;-50
2023/07/18 12:15:09;;;;;;;12.80;6.57;;;24.40;99.90;;;;;;5082460;28;20208;-50
2023/07/18 12:17:40;;;;;;;9.60;7.03;;;24.60;99.90;;;;;;5081725;28;20205;-50
2023/07/18 12:20:09;;;;;;;6.70;6.27;;;24.80;99.90;;;;;;5074824;28;20225;-50
2023/07/18 12:22:38;;;;;;;7.63;6.90;;;24.90;99.90;;;;;;5066791;28;20358;-50
2023/07/18 12:25:05;;;;;;;7.80;6.93;;;25.00;99.90;;;;;;5059034;28;20288;-50
2023/07/18 12:27:34;;;;;;;11.33;7.07;;;25.10;99.90;;;;;;5057314;28;20569;-50
2023/07/18 12:30:01;;;;;;;7.17;6.67;;;25.10;99.90;;;;;;5057820;28;20193;-50
2023/07/18 12:32:28;;;;;;;6.63;6.10;;;25.10;99.90;;;;;;5061873;28;20213;-51
2023/07/18 12:34:54;;;;;;;10.07;7.23;;;25.00;99.90;;;;;;5064951;28;20284;-50
2023/07/18 12:37:21;;;;;;;8.30;7.53;;;25.00;99.90;;;;;;5058429;28;20633;-50
2023/07/18 12:39:48;;;;;;;6.80;6.30;;;25.10;99.90;;;;;;5063005;28;20622;-50
2023/07/18 12:42:15;;;;;;;9.67;7.37;;;25.30;99.90;;;;;;5063155;28;20222;-50
2023/07/18 12:44:46;;;;;;;7.30;6.23;;;25.50;99.90;;;;;;5060953;28;20209;-50
2023/07/18 12:47:13;;;;;;;8.20;7.40;;;25.90;99.90;;;;;;5061390;28;20232;-50
2023/07/18 12:49:41;;;;;;;7.15;6.55;;;26.40;99.90;;;;;;5066160;28;20208;-51